sensor_id;sensor_type;location;lat;lon;timestamp;temperature;humidity
63202;DHT22;49296;48.188;11.566;2023-04-08T00:00:22;7.96;69.96
63202;DHT22;49296;48.188;11.566;2023-04-08T00:02:48;8.14;69.49
63202;DHT22;49296;48.188;11.566;2023-04-08T00:05:15;7.78;70.39
63202;DHT22;49296;48.188;11.566;2023-04-08T00:07:46;7.88;70.44
63202;DHT22;49296;48.188;11.566;2023-04-08T00:10:12;7.70;70.77
63202;DHT22;49296;48.188;11.566;2023-04-08T00:12:42;7.60;71.22
63202;DHT22;49296;48.188;11.566;2023-04-08T00:15:09;7.38;72.09
63202;DHT22;49296;48.188;11.566;2023-04-08T00:17:36;7.70;71.29
63202;DHT22;49296;48.188;11.566;2023-04-08T00:20:08;7.67;71.59
63202;DHT22;49296;48.188;11.566;2023-04-08T00:22:36;7.83;71.05
63202;DHT22;49296;48.188;11.566;2023-04-08T00:25:05;7.74;71.17
63202;DHT22;49296;48.188;11.566;2023-04-08T00:27:33;7.47;72.24
63202;DHT22;49296;48.188;11.566;2023-04-08T00:30:00;7.37;72.80
63202;DHT22;49296;48.188;11.566;2023-04-08T00:32:27;7.43;72.66
63202;DHT22;49296;48.188;11.566;2023-04-08T00:34:54;7.44;72.69
63202;DHT22;49296;48.188;11.566;2023-04-08T00:37:21;7.46;72.66
63202;DHT22;49296;48.188;11.566;2023-04-08T00:39:49;7.57;72.37
63202;DHT22;49296;48.188;11.566;2023-04-08T00:42:17;7.61;71.90
63202;DHT22;49296;48.188;11.566;2023-04-08T00:44:43;7.47;72.32
63202;DHT22;49296;48.188;11.566;2023-04-08T00:47:11;7.43;72.61
63202;DHT22;49296;48.188;11.566;2023-04-08T00:49:38;7.55;72.47
63202;DHT22;49296;48.188;11.566;2023-04-08T00:52:07;7.46;72.80
63202;DHT22;49296;48.188;11.566;2023-04-08T00:54:37;7.48;72.71
63202;DHT22;49296;48.188;11.566;2023-04-08T00:57:04;7.22;73.57
63202;DHT22;49296;48.188;11.566;2023-04-08T00:59:33;7.17;74.01
63202;DHT22;49296;48.188;11.566;2023-04-08T01:02:13;7.15;73.93
63202;DHT22;49296;48.188;11.566;2023-04-08T01:04:48;7.12;73.91
63202;DHT22;49296;48.188;11.566;2023-04-08T01:07:21;7.20;74.01
63202;DHT22;49296;48.188;11.566;2023-04-08T01:09:54;7.03;74.44
63202;DHT22;49296;48.188;11.566;2023-04-08T01:12:24;7.09;74.31
63202;DHT22;49296;48.188;11.566;2023-04-08T01:14:57;7.03;74.67
63202;DHT22;49296;48.188;11.566;2023-04-08T01:17:26;7.06;74.42
63202;DHT22;49296;48.188;11.566;2023-04-08T01:19:53;6.95;74.99
63202;DHT22;49296;48.188;11.566;2023-04-08T01:22:26;7.02;74.69
63202;DHT22;49296;48.188;11.566;2023-04-08T01:25:00;6.99;74.83
63202;DHT22;49296;48.188;11.566;2023-04-08T01:27:30;6.98;74.64
63202;DHT22;49296;48.188;11.566;2023-04-08T01:29:57;7.03;74.50
63202;DHT22;49296;48.188;11.566;2023-04-08T01:32:25;6.93;74.67
63202;DHT22;49296;48.188;11.566;2023-04-08T01:34:55;6.82;75.13
63202;DHT22;49296;48.188;11.566;2023-04-08T01:37:22;6.92;75.03
63202;DHT22;49296;48.188;11.566;2023-04-08T01:39:51;6.91;75.15
63202;DHT22;49296;48.188;11.566;2023-04-08T01:42:18;6.82;75.32
63202;DHT22;49296;48.188;11.566;2023-04-08T01:44:48;6.96;75.20
63202;DHT22;49296;48.188;11.566;2023-04-08T01:47:15;6.98;74.80
63202;DHT22;49296;48.188;11.566;2023-04-08T01:49:43;6.99;74.78
63202;DHT22;49296;48.188;11.566;2023-04-08T01:52:10;6.85;75.29
63202;DHT22;49296;48.188;11.566;2023-04-08T01:54:40;6.71;75.68
63202;DHT22;49296;48.188;11.566;2023-04-08T01:57:18;6.87;75.48
63202;DHT22;49296;48.188;11.566;2023-04-08T01:59:55;6.64;76.12
63202;DHT22;49296;48.188;11.566;2023-04-08T02:02:25;6.71;76.11
63202;DHT22;49296;48.188;11.566;2023-04-08T02:04:57;6.53;76.42
63202;DHT22;49296;48.188;11.566;2023-04-08T02:07:24;6.58;76.42
63202;DHT22;49296;48.188;11.566;2023-04-08T02:09:51;6.54;76.56
63202;DHT22;49296;48.188;11.566;2023-04-08T02:12:17;6.71;76.19
63202;DHT22;49296;48.188;11.566;2023-04-08T02:14:44;6.53;76.76
63202;DHT22;49296;48.188;11.566;2023-04-08T02:17:17;6.61;76.53
63202;DHT22;49296;48.188;11.566;2023-04-08T02:19:50;6.64;76.58
63202;DHT22;49296;48.188;11.566;2023-04-08T02:22:23;6.70;76.31
63202;DHT22;49296;48.188;11.566;2023-04-08T02:24:51;6.81;75.65
63202;DHT22;49296;48.188;11.566;2023-04-08T02:27:19;6.81;76.05
63202;DHT22;49296;48.188;11.566;2023-04-08T02:29:46;6.61;76.61
63202;DHT22;49296;48.188;11.566;2023-04-08T02:32:16;6.57;76.73
63202;DHT22;49296;48.188;11.566;2023-04-08T02:34:43;6.30;77.45
63202;DHT22;49296;48.188;11.566;2023-04-08T02:37:10;6.33;77.72
63202;DHT22;49296;48.188;11.566;2023-04-08T02:39:37;6.29;77.84
63202;DHT22;49296;48.188;11.566;2023-04-08T02:42:03;6.39;77.64
63202;DHT22;49296;48.188;11.566;2023-04-08T02:44:30;6.50;77.40
63202;DHT22;49296;48.188;11.566;2023-04-08T02:46:57;6.40;77.66
63202;DHT22;49296;48.188;11.566;2023-04-08T02:49:25;6.60;77.00
63202;DHT22;49296;48.188;11.566;2023-04-08T02:51:51;6.15;78.01
63202;DHT22;49296;48.188;11.566;2023-04-08T02:54:18;6.28;78.19
63202;DHT22;49296;48.188;11.566;2023-04-08T02:56:45;6.19;78.19
63202;DHT22;49296;48.188;11.566;2023-04-08T02:59:11;6.28;78.30
63202;DHT22;49296;48.188;11.566;2023-04-08T03:01:38;6.09;79.04
63202;DHT22;49296;48.188;11.566;2023-04-08T03:04:05;6.20;78.73
63202;DHT22;49296;48.188;11.566;2023-04-08T03:06:33;6.22;78.18
63202;DHT22;49296;48.188;11.566;2023-04-08T03:08:59;6.15;78.72
63202;DHT22;49296;48.188;11.566;2023-04-08T03:11:26;6.11;78.91
63202;DHT22;49296;48.188;11.566;2023-04-08T03:13:53;6.19;78.70
63202;DHT22;49296;48.188;11.566;2023-04-08T03:16:19;6.03;79.15
63202;DHT22;49296;48.188;11.566;2023-04-08T03:18:46;6.02;79.40
63202;DHT22;49296;48.188;11.566;2023-04-08T03:21:14;6.08;79.16
63202;DHT22;49296;48.188;11.566;2023-04-08T03:23:43;6.20;78.82
63202;DHT22;49296;48.188;11.566;2023-04-08T03:26:09;6.28;78.70
63202;DHT22;49296;48.188;11.566;2023-04-08T03:28:36;6.22;78.73
63202;DHT22;49296;48.188;11.566;2023-04-08T03:31:03;6.12;79.19
63202;DHT22;49296;48.188;11.566;2023-04-08T03:33:30;6.26;78.89
63202;DHT22;49296;48.188;11.566;2023-04-08T03:35:56;6.13;79.46
63202;DHT22;49296;48.188;11.566;2023-04-08T03:38:23;6.13;79.53
63202;DHT22;49296;48.188;11.566;2023-04-08T03:40:51;6.33;79.00
63202;DHT22;49296;48.188;11.566;2023-04-08T03:43:18;6.36;78.86
63202;DHT22;49296;48.188;11.566;2023-04-08T03:45:46;6.18;79.31
63202;DHT22;49296;48.188;11.566;2023-04-08T03:48:12;6.26;79.09
63202;DHT22;49296;48.188;11.566;2023-04-08T03:50:39;6.40;78.85
63202;DHT22;49296;48.188;11.566;2023-04-08T03:53:05;6.30;79.01
63202;DHT22;49296;48.188;11.566;2023-04-08T03:55:35;6.18;79.64
63202;DHT22;49296;48.188;11.566;2023-04-08T03:58:03;6.32;79.24
63202;DHT22;49296;48.188;11.566;2023-04-08T04:00:30;6.16;79.66
63202;DHT22;49296;48.188;11.566;2023-04-08T04:02:57;6.11;79.90
63202;DHT22;49296;48.188;11.566;2023-04-08T04:05:23;6.19;79.72
63202;DHT22;49296;48.188;11.566;2023-04-08T04:07:50;6.23;79.64
63202;DHT22;49296;48.188;11.566;2023-04-08T04:10:17;6.09;79.98
63202;DHT22;49296;48.188;11.566;2023-04-08T04:12:43;5.95;80.37
63202;DHT22;49296;48.188;11.566;2023-04-08T04:15:12;6.18;80.39
63202;DHT22;49296;48.188;11.566;2023-04-08T04:17:39;6.01;80.54
63202;DHT22;49296;48.188;11.566;2023-04-08T04:20:06;6.18;80.42
63202;DHT22;49296;48.188;11.566;2023-04-08T04:22:33;5.99;80.61
63202;DHT22;49296;48.188;11.566;2023-04-08T04:25:00;6.13;80.41
63202;DHT22;49296;48.188;11.566;2023-04-08T04:27:26;6.28;80.14
63202;DHT22;49296;48.188;11.566;2023-04-08T04:29:53;6.36;79.74
63202;DHT22;49296;48.188;11.566;2023-04-08T04:32:21;6.50;79.22
63202;DHT22;49296;48.188;11.566;2023-04-08T04:34:47;6.43;79.18
63202;DHT22;49296;48.188;11.566;2023-04-08T04:37:14;6.55;78.88
63202;DHT22;49296;48.188;11.566;2023-04-08T04:39:41;6.47;79.44
63202;DHT22;49296;48.188;11.566;2023-04-08T04:42:08;6.47;79.32
63202;DHT22;49296;48.188;11.566;2023-04-08T04:44:34;6.36;79.67
63202;DHT22;49296;48.188;11.566;2023-04-08T04:47:01;6.33;79.96
63202;DHT22;49296;48.188;11.566;2023-04-08T04:49:29;6.26;80.40
63202;DHT22;49296;48.188;11.566;2023-04-08T04:51:56;6.26;80.30
63202;DHT22;49296;48.188;11.566;2023-04-08T04:54:23;6.34;80.18
63202;DHT22;49296;48.188;11.566;2023-04-08T04:56:50;6.46;79.73
63202;DHT22;49296;48.188;11.566;2023-04-08T04:59:16;6.50;79.58
63202;DHT22;49296;48.188;11.566;2023-04-08T05:01:43;6.55;79.12
63202;DHT22;49296;48.188;11.566;2023-04-08T05:04:10;6.44;79.69
63202;DHT22;49296;48.188;11.566;2023-04-08T05:06:38;6.40;79.76
63202;DHT22;49296;48.188;11.566;2023-04-08T05:09:04;6.44;79.98
63202;DHT22;49296;48.188;11.566;2023-04-08T05:11:31;6.55;79.63
63202;DHT22;49296;48.188;11.566;2023-04-08T05:13:57;6.40;79.95
63202;DHT22;49296;48.188;11.566;2023-04-08T05:16:24;6.47;79.95
63202;DHT22;49296;48.188;11.566;2023-04-08T05:18:51;6.61;79.51
63202;DHT22;49296;48.188;11.566;2023-04-08T05:21:17;6.46;80.09
63202;DHT22;49296;48.188;11.566;2023-04-08T05:23:46;6.54;79.80
63202;DHT22;49296;48.188;11.566;2023-04-08T05:26:12;6.64;79.89
63202;DHT22;49296;48.188;11.566;2023-04-08T05:28:39;6.50;79.90
63202;DHT22;49296;48.188;11.566;2023-04-08T05:31:06;6.46;80.19
63202;DHT22;49296;48.188;11.566;2023-04-08T05:33:32;6.48;80.11
63202;DHT22;49296;48.188;11.566;2023-04-08T05:35:59;6.71;79.88
63202;DHT22;49296;48.188;11.566;2023-04-08T05:38:25;6.77;79.45
63202;DHT22;49296;48.188;11.566;2023-04-08T05:40:53;6.64;79.99
63202;DHT22;49296;48.188;11.566;2023-04-08T05:43:20;6.70;79.84
63202;DHT22;49296;48.188;11.566;2023-04-08T05:45:47;6.78;79.72
63202;DHT22;49296;48.188;11.566;2023-04-08T05:48:13;6.91;79.35
63202;DHT22;49296;48.188;11.566;2023-04-08T05:50:40;6.98;79.20
63202;DHT22;49296;48.188;11.566;2023-04-08T05:53:08;6.89;79.40
63202;DHT22;49296;48.188;11.566;2023-04-08T05:55:35;6.72;79.97
63202;DHT22;49296;48.188;11.566;2023-04-08T05:58:03;6.61;80.39
63202;DHT22;49296;48.188;11.566;2023-04-08T06:00:29;6.57;80.84
63202;DHT22;49296;48.188;11.566;2023-04-08T06:02:56;6.78;80.26
63202;DHT22;49296;48.188;11.566;2023-04-08T06:05:23;6.92;79.76
63202;DHT22;49296;48.188;11.566;2023-04-08T06:07:49;6.95;79.31
63202;DHT22;49296;48.188;11.566;2023-04-08T06:10:16;6.89;79.76
63202;DHT22;49296;48.188;11.566;2023-04-08T06:12:43;6.87;79.98
63202;DHT22;49296;48.188;11.566;2023-04-08T06:15:11;6.74;80.52
63202;DHT22;49296;48.188;11.566;2023-04-08T06:17:38;6.88;80.16
63202;DHT22;49296;48.188;11.566;2023-04-08T06:20:06;6.88;79.87
63202;DHT22;49296;48.188;11.566;2023-04-08T06:22:33;6.93;80.08
63202;DHT22;49296;48.188;11.566;2023-04-08T06:25:00;7.03;79.74
63202;DHT22;49296;48.188;11.566;2023-04-08T06:27:26;6.92;80.20
63202;DHT22;49296;48.188;11.566;2023-04-08T06:29:53;6.89;80.09
63202;DHT22;49296;48.188;11.566;2023-04-08T06:32:21;6.82;80.09
63202;DHT22;49296;48.188;11.566;2023-04-08T06:34:48;6.93;80.09
63202;DHT22;49296;48.188;11.566;2023-04-08T06:37:15;6.95;80.14
63202;DHT22;49296;48.188;11.566;2023-04-08T06:39:42;6.98;79.78
63202;DHT22;49296;48.188;11.566;2023-04-08T06:42:08;6.92;79.85
63202;DHT22;49296;48.188;11.566;2023-04-08T06:44:35;6.84;80.27
63202;DHT22;49296;48.188;11.566;2023-04-08T06:47:01;6.71;80.28
63202;DHT22;49296;48.188;11.566;2023-04-08T06:49:29;6.72;80.37
63202;DHT22;49296;48.188;11.566;2023-04-08T06:51:56;6.63;80.79
63202;DHT22;49296;48.188;11.566;2023-04-08T06:54:23;6.75;80.34
63202;DHT22;49296;48.188;11.566;2023-04-08T06:56:51;6.88;79.81
63202;DHT22;49296;48.188;11.566;2023-04-08T06:59:18;6.88;79.80
63202;DHT22;49296;48.188;11.566;2023-04-08T07:01:45;6.99;79.61
63202;DHT22;49296;48.188;11.566;2023-04-08T07:04:11;7.03;79.16
63202;DHT22;49296;48.188;11.566;2023-04-08T07:06:40;7.10;78.90
63202;DHT22;49296;48.188;11.566;2023-04-08T07:09:07;6.95;79.14
63202;DHT22;49296;48.188;11.566;2023-04-08T07:11:33;6.99;79.01
63202;DHT22;49296;48.188;11.566;2023-04-08T07:14:00;7.09;78.50
63202;DHT22;49296;48.188;11.566;2023-04-08T07:16:29;7.19;78.13
63202;DHT22;49296;48.188;11.566;2023-04-08T07:18:55;7.08;77.77
63202;DHT22;49296;48.188;11.566;2023-04-08T07:21:22;7.06;77.58
63202;DHT22;49296;48.188;11.566;2023-04-08T07:23:50;7.17;77.18
63202;DHT22;49296;48.188;11.566;2023-04-08T07:26:17;7.13;76.47
63202;DHT22;49296;48.188;11.566;2023-04-08T07:28:44;7.17;75.18
63202;DHT22;49296;48.188;11.566;2023-04-08T07:31:12;6.92;73.12
63202;DHT22;49296;48.188;11.566;2023-04-08T07:33:40;7.12;73.46
63202;DHT22;49296;48.188;11.566;2023-04-08T07:36:08;7.30;73.48
63202;DHT22;49296;48.188;11.566;2023-04-08T07:38:34;7.34;74.33
63202;DHT22;49296;48.188;11.566;2023-04-08T07:41:02;7.44;73.42
63202;DHT22;49296;48.188;11.566;2023-04-08T07:43:30;7.77;72.64
63202;DHT22;49296;48.188;11.566;2023-04-08T07:46:01;7.75;71.24
63202;DHT22;49296;48.188;11.566;2023-04-08T07:48:29;7.68;69.67
63202;DHT22;49296;48.188;11.566;2023-04-08T07:50:55;7.62;68.04
63202;DHT22;49296;48.188;11.566;2023-04-08T07:53:22;7.65;68.42
63202;DHT22;49296;48.188;11.566;2023-04-08T07:55:51;7.47;68.36
63202;DHT22;49296;48.188;11.566;2023-04-08T07:58:19;7.44;68.90
63202;DHT22;49296;48.188;11.566;2023-04-08T08:00:45;7.27;67.46
63202;DHT22;49296;48.188;11.566;2023-04-08T08:03:12;7.51;67.27
63202;DHT22;49296;48.188;11.566;2023-04-08T08:05:39;7.62;66.85
63202;DHT22;49296;48.188;11.566;2023-04-08T08:08:05;7.70;66.43
63202;DHT22;49296;48.188;11.566;2023-04-08T08:10:32;7.51;64.83
63202;DHT22;49296;48.188;11.566;2023-04-08T08:12:59;7.24;65.79
63202;DHT22;49296;48.188;11.566;2023-04-08T08:15:27;7.30;66.20
63202;DHT22;49296;48.188;11.566;2023-04-08T08:17:54;7.26;66.66
63202;DHT22;49296;48.188;11.566;2023-04-08T08:20:21;7.37;66.14
63202;DHT22;49296;48.188;11.566;2023-04-08T08:22:47;7.31;64.97
63202;DHT22;49296;48.188;11.566;2023-04-08T08:25:15;7.40;65.50
63202;DHT22;49296;48.188;11.566;2023-04-08T08:27:42;7.40;66.74
63202;DHT22;49296;48.188;11.566;2023-04-08T08:30:10;7.42;65.58
63202;DHT22;49296;48.188;11.566;2023-04-08T08:32:38;7.42;66.07
63202;DHT22;49296;48.188;11.566;2023-04-08T08:35:05;6.98;67.83
63202;DHT22;49296;48.188;11.566;2023-04-08T08:37:32;7.03;67.41
63202;DHT22;49296;48.188;11.566;2023-04-08T08:39:59;6.89;67.96
63202;DHT22;49296;48.188;11.566;2023-04-08T08:42:26;6.92;68.26
63202;DHT22;49296;48.188;11.566;2023-04-08T08:44:53;7.08;69.64
63202;DHT22;49296;48.188;11.566;2023-04-08T08:47:20;6.87;70.76
63202;DHT22;49296;48.188;11.566;2023-04-08T08:49:48;6.88;71.08
63202;DHT22;49296;48.188;11.566;2023-04-08T08:52:15;6.67;72.46
63202;DHT22;49296;48.188;11.566;2023-04-08T08:54:42;6.70;71.82
63202;DHT22;49296;48.188;11.566;2023-04-08T08:57:19;6.44;71.40
63202;DHT22;49296;48.188;11.566;2023-04-08T08:59:46;6.39;71.82
63202;DHT22;49296;48.188;11.566;2023-04-08T09:02:24;6.30;71.62
63202;DHT22;49296;48.188;11.566;2023-04-08T09:04:58;6.51;71.68
63202;DHT22;49296;48.188;11.566;2023-04-08T09:07:25;6.29;71.56
63202;DHT22;49296;48.188;11.566;2023-04-08T09:09:53;6.28;70.22
63202;DHT22;49296;48.188;11.566;2023-04-08T09:12:21;6.37;70.11
63202;DHT22;49296;48.188;11.566;2023-04-08T09:14:49;6.25;70.01
63202;DHT22;49296;48.188;11.566;2023-04-08T09:17:16;6.44;70.58
63202;DHT22;49296;48.188;11.566;2023-04-08T09:20:04;6.37;71.25
63202;DHT22;49296;48.188;11.566;2023-04-08T09:22:34;6.32;71.29
63202;DHT22;49296;48.188;11.566;2023-04-08T09:25:23;6.26;70.73
63202;DHT22;49296;48.188;11.566;2023-04-08T09:27:51;6.09;70.34
63202;DHT22;49296;48.188;11.566;2023-04-08T09:30:19;6.06;70.92
63202;DHT22;49296;48.188;11.566;2023-04-08T09:32:47;6.15;70.29
63202;DHT22;49296;48.188;11.566;2023-04-08T09:35:16;6.29;70.84
63202;DHT22;49296;48.188;11.566;2023-04-08T09:37:42;6.48;70.51
63202;DHT22;49296;48.188;11.566;2023-04-08T09:40:09;6.46;69.74
63202;DHT22;49296;48.188;11.566;2023-04-08T09:42:39;6.40;69.94
63202;DHT22;49296;48.188;11.566;2023-04-08T09:45:08;6.33;70.15
63202;DHT22;49296;48.188;11.566;2023-04-08T09:47:46;6.26;70.62
63202;DHT22;49296;48.188;11.566;2023-04-08T09:50:19;6.39;70.82
63202;DHT22;49296;48.188;11.566;2023-04-08T09:52:52;6.46;70.50
63202;DHT22;49296;48.188;11.566;2023-04-08T09:55:21;6.44;70.49
63202;DHT22;49296;48.188;11.566;2023-04-08T09:57:51;6.67;70.48
63202;DHT22;49296;48.188;11.566;2023-04-08T10:00:18;6.85;69.83
63202;DHT22;49296;48.188;11.566;2023-04-08T10:02:53;6.87;69.67
63202;DHT22;49296;48.188;11.566;2023-04-08T10:05:23;7.05;69.20
63202;DHT22;49296;48.188;11.566;2023-04-08T10:07:50;7.26;68.75
63202;DHT22;49296;48.188;11.566;2023-04-08T10:10:17;7.36;68.79
63202;DHT22;49296;48.188;11.566;2023-04-08T10:12:44;7.47;68.57
63202;DHT22;49296;48.188;11.566;2023-04-08T10:15:24;7.83;68.34
63202;DHT22;49296;48.188;11.566;2023-04-08T10:17:51;7.70;68.14
63202;DHT22;49296;48.188;11.566;2023-04-08T10:20:41;7.50;68.46
63202;DHT22;49296;48.188;11.566;2023-04-08T10:23:10;7.46;68.29
63202;DHT22;49296;48.188;11.566;2023-04-08T10:25:38;7.10;68.82
63202;DHT22;49296;48.188;11.566;2023-04-08T10:28:26;7.30;68.98
63202;DHT22;49296;48.188;11.566;2023-04-08T10:30:55;7.17;68.89
63202;DHT22;49296;48.188;11.566;2023-04-08T10:33:23;7.17;69.21
63202;DHT22;49296;48.188;11.566;2023-04-08T10:35:54;7.13;69.16
63202;DHT22;49296;48.188;11.566;2023-04-08T10:38:21;7.06;69.77
63202;DHT22;49296;48.188;11.566;2023-04-08T10:40:48;7.16;69.71
63202;DHT22;49296;48.188;11.566;2023-04-08T10:43:15;7.16;69.68
63202;DHT22;49296;48.188;11.566;2023-04-08T10:45:43;7.10;70.05
63202;DHT22;49296;48.188;11.566;2023-04-08T10:48:14;7.17;70.07
63202;DHT22;49296;48.188;11.566;2023-04-08T10:50:42;7.27;69.90
63202;DHT22;49296;48.188;11.566;2023-04-08T10:53:10;7.09;70.24
63202;DHT22;49296;48.188;11.566;2023-04-08T10:55:37;6.89;70.84
63202;DHT22;49296;48.188;11.566;2023-04-08T10:58:05;6.92;71.22
63202;DHT22;49296;48.188;11.566;2023-04-08T11:00:33;6.88;71.30
63202;DHT22;49296;48.188;11.566;2023-04-08T11:02:59;6.89;71.75
63202;DHT22;49296;48.188;11.566;2023-04-08T11:05:26;6.88;71.67
63202;DHT22;49296;48.188;11.566;2023-04-08T11:07:53;7.03;71.09
63202;DHT22;49296;48.188;11.566;2023-04-08T11:10:21;6.95;71.48
63202;DHT22;49296;48.188;11.566;2023-04-08T11:12:48;6.89;71.95
63202;DHT22;49296;48.188;11.566;2023-04-08T11:15:16;6.71;73.05
63202;DHT22;49296;48.188;11.566;2023-04-08T11:17:43;6.93;72.70
63202;DHT22;49296;48.188;11.566;2023-04-08T11:20:10;6.89;72.74
63202;DHT22;49296;48.188;11.566;2023-04-08T11:22:36;6.77;73.12
63202;DHT22;49296;48.188;11.566;2023-04-08T11:25:06;6.74;73.41
63202;DHT22;49296;48.188;11.566;2023-04-08T11:27:36;6.77;73.62
63202;DHT22;49296;48.188;11.566;2023-04-08T11:30:05;6.93;73.51
63202;DHT22;49296;48.188;11.566;2023-04-08T11:32:32;6.72;73.10
63202;DHT22;49296;48.188;11.566;2023-04-08T11:34:59;6.64;73.22
63202;DHT22;49296;48.188;11.566;2023-04-08T11:37:35;6.70;73.59
63202;DHT22;49296;48.188;11.566;2023-04-08T11:40:06;6.64;73.78
63202;DHT22;49296;48.188;11.566;2023-04-08T11:42:33;6.67;72.96
63202;DHT22;49296;48.188;11.566;2023-04-08T11:45:09;6.63;72.14
63202;DHT22;49296;48.188;11.566;2023-04-08T11:47:36;6.70;71.66
63202;DHT22;49296;48.188;11.566;2023-04-08T11:50:04;6.54;71.59
63202;DHT22;49296;48.188;11.566;2023-04-08T11:52:44;6.46;71.82
63202;DHT22;49296;48.188;11.566;2023-04-08T11:55:20;6.47;71.64
63202;DHT22;49296;48.188;11.566;2023-04-08T11:57:47;6.39;72.11
63202;DHT22;49296;48.188;11.566;2023-04-08T12:00:18;6.33;72.35
63202;DHT22;49296;48.188;11.566;2023-04-08T12:02:45;6.47;72.23
63202;DHT22;49296;48.188;11.566;2023-04-08T12:05:13;6.55;71.82
63202;DHT22;49296;48.188;11.566;2023-04-08T12:07:40;6.33;72.34
63202;DHT22;49296;48.188;11.566;2023-04-08T12:10:08;6.37;72.49
63202;DHT22;49296;48.188;11.566;2023-04-08T12:12:34;6.58;72.34
63202;DHT22;49296;48.188;11.566;2023-04-08T12:15:01;6.55;72.42
63202;DHT22;49296;48.188;11.566;2023-04-08T12:17:29;6.37;72.49
63202;DHT22;49296;48.188;11.566;2023-04-08T12:19:56;6.43;72.96
63202;DHT22;49296;48.188;11.566;2023-04-08T12:22:23;6.18;73.29
63202;DHT22;49296;48.188;11.566;2023-04-08T12:24:50;6.33;73.10
63202;DHT22;49296;48.188;11.566;2023-04-08T12:27:16;6.44;73.12
63202;DHT22;49296;48.188;11.566;2023-04-08T12:29:43;6.44;73.35
63202;DHT22;49296;48.188;11.566;2023-04-08T12:32:10;6.51;73.35
63202;DHT22;49296;48.188;11.566;2023-04-08T12:34:39;6.70;72.61
63202;DHT22;49296;48.188;11.566;2023-04-08T12:37:05;6.48;73.13
63202;DHT22;49296;48.188;11.566;2023-04-08T12:39:32;6.40;73.34
63202;DHT22;49296;48.188;11.566;2023-04-08T12:41:59;6.43;73.89
63202;DHT22;49296;48.188;11.566;2023-04-08T12:44:25;6.51;73.63
63202;DHT22;49296;48.188;11.566;2023-04-08T12:46:52;6.71;73.25
63202;DHT22;49296;48.188;11.566;2023-04-08T12:49:19;6.81;72.98
63202;DHT22;49296;48.188;11.566;2023-04-08T12:51:47;6.75;73.11
63202;DHT22;49296;48.188;11.566;2023-04-08T12:54:14;6.36;74.22
63202;DHT22;49296;48.188;11.566;2023-04-08T12:56:41;6.33;74.05
63202;DHT22;49296;48.188;11.566;2023-04-08T12:59:08;6.22;74.58
63202;DHT22;49296;48.188;11.566;2023-04-08T13:01:35;6.30;75.01
63202;DHT22;49296;48.188;11.566;2023-04-08T13:04:02;6.40;74.62
63202;DHT22;49296;48.188;11.566;2023-04-08T13:06:28;6.33;74.86
63202;DHT22;49296;48.188;11.566;2023-04-08T13:08:57;6.43;74.95
63202;DHT22;49296;48.188;11.566;2023-04-08T13:11:24;6.47;74.52
63202;DHT22;49296;48.188;11.566;2023-04-08T13:13:51;6.47;74.58
63202;DHT22;49296;48.188;11.566;2023-04-08T13:16:18;6.64;74.50
63202;DHT22;49296;48.188;11.566;2023-04-08T13:18:46;6.84;74.30
63202;DHT22;49296;48.188;11.566;2023-04-08T13:21:12;6.70;74.08
63202;DHT22;49296;48.188;11.566;2023-04-08T13:23:39;6.71;74.62
63202;DHT22;49296;48.188;11.566;2023-04-08T13:26:07;6.55;74.90
63202;DHT22;49296;48.188;11.566;2023-04-08T13:28:34;6.58;75.11
63202;DHT22;49296;48.188;11.566;2023-04-08T13:31:01;6.58;75.37
63202;DHT22;49296;48.188;11.566;2023-04-08T13:33:27;6.58;74.88
63202;DHT22;49296;48.188;11.566;2023-04-08T13:35:54;6.58;75.00
63202;DHT22;49296;48.188;11.566;2023-04-08T13:38:21;6.47;75.09
63202;DHT22;49296;48.188;11.566;2023-04-08T13:40:47;6.40;75.10
63202;DHT22;49296;48.188;11.566;2023-04-08T13:43:15;6.50;75.42
63202;DHT22;49296;48.188;11.566;2023-04-08T13:45:42;6.61;74.88
63202;DHT22;49296;48.188;11.566;2023-04-08T13:48:09;6.81;74.50
63202;DHT22;49296;48.188;11.566;2023-04-08T13:50:36;6.75;74.18
63202;DHT22;49296;48.188;11.566;2023-04-08T13:53:03;6.70;74.41
63202;DHT22;49296;48.188;11.566;2023-04-08T13:55:30;6.87;73.98
63202;DHT22;49296;48.188;11.566;2023-04-08T13:57:57;7.05;73.46
63202;DHT22;49296;48.188;11.566;2023-04-08T14:00:25;7.05;73.55
63202;DHT22;49296;48.188;11.566;2023-04-08T14:02:52;7.02;73.52
63202;DHT22;49296;48.188;11.566;2023-04-08T14:05:19;6.84;73.37
63202;DHT22;49296;48.188;11.566;2023-04-08T14:07:45;6.68;73.75
63202;DHT22;49296;48.188;11.566;2023-04-08T14:10:12;6.84;73.30
63202;DHT22;49296;48.188;11.566;2023-04-08T14:12:43;6.84;73.54
63202;DHT22;49296;48.188;11.566;2023-04-08T14:15:11;6.99;73.18
63202;DHT22;49296;48.188;11.566;2023-04-08T14:17:39;7.20;72.50
63202;DHT22;49296;48.188;11.566;2023-04-08T14:20:06;6.89;72.83
63202;DHT22;49296;48.188;11.566;2023-04-08T14:22:33;6.85;72.65
63202;DHT22;49296;48.188;11.566;2023-04-08T14:25:00;7.02;72.07
63202;DHT22;49296;48.188;11.566;2023-04-08T14:27:27;7.12;72.02
63202;DHT22;49296;48.188;11.566;2023-04-08T14:29:54;7.00;71.80
63202;DHT22;49296;48.188;11.566;2023-04-08T14:32:20;7.10;71.95
63202;DHT22;49296;48.188;11.566;2023-04-08T14:34:48;7.13;72.03
63202;DHT22;49296;48.188;11.566;2023-04-08T14:37:16;7.12;71.78
63202;DHT22;49296;48.188;11.566;2023-04-08T14:39:43;7.08;71.45
63202;DHT22;49296;48.188;11.566;2023-04-08T14:42:10;7.20;71.38
63202;DHT22;49296;48.188;11.566;2023-04-08T14:44:37;7.30;71.38
63202;DHT22;49296;48.188;11.566;2023-04-08T14:47:03;7.40;71.14
63202;DHT22;49296;48.188;11.566;2023-04-08T14:49:30;7.43;70.98
63202;DHT22;49296;48.188;11.566;2023-04-08T14:51:58;7.31;71.15
63202;DHT22;49296;48.188;11.566;2023-04-08T14:54:25;7.26;71.30
63202;DHT22;49296;48.188;11.566;2023-04-08T14:56:52;7.46;71.03
63202;DHT22;49296;48.188;11.566;2023-04-08T14:59:19;7.20;71.21
63202;DHT22;49296;48.188;11.566;2023-04-08T15:01:46;6.95;72.20
63202;DHT22;49296;48.188;11.566;2023-04-08T15:04:12;6.98;72.71
63202;DHT22;49296;48.188;11.566;2023-04-08T15:06:39;6.96;72.71
63202;DHT22;49296;48.188;11.566;2023-04-08T15:09:07;7.03;72.32
63202;DHT22;49296;48.188;11.566;2023-04-08T15:11:34;7.13;72.33
63202;DHT22;49296;48.188;11.566;2023-04-08T15:14:01;7.00;72.57
63202;DHT22;49296;48.188;11.566;2023-04-08T15:16:28;6.85;73.19
63202;DHT22;49296;48.188;11.566;2023-04-08T15:18:54;7.06;72.52
63202;DHT22;49296;48.188;11.566;2023-04-08T15:21:24;7.13;72.47
63202;DHT22;49296;48.188;11.566;2023-04-08T15:23:51;7.27;72.09
63202;DHT22;49296;48.188;11.566;2023-04-08T15:26:19;7.36;71.97
63202;DHT22;49296;48.188;11.566;2023-04-08T15:28:45;7.28;72.32
63202;DHT22;49296;48.188;11.566;2023-04-08T15:31:12;7.43;72.17
63202;DHT22;49296;48.188;11.566;2023-04-08T15:33:39;7.46;71.95